sensor_id;sensor_type;location;lat;lon;timestamp;P1;durP1;ratioP1;P2;durP2;ratioP2
71963;SDS011;59834;52.124;5.422;2023-04-28T00:00:50;3.88;;;2.10;;
71963;SDS011;59834;52.124;5.422;2023-04-28T00:03:18;4.18;;;2.10;;
71963;SDS011;59834;52.124;5.422;2023-04-28T00:05:47;6.30;;;1.77;;
71963;SDS011;59834;52.124;5.422;2023-04-28T00:08:16;3.47;;;2.25;;
71963;SDS011;59834;52.124;5.422;2023-04-28T00:10:42;4.10;;;2.00;;
71963;SDS011;59834;52.124;5.422;2023-04-28T00:13:10;7.35;;;2.00;;
71963;SDS011;59834;52.124;5.422;2023-04-28T00:15:36;4.55;;;2.40;;
71963;SDS011;59834;52.124;5.422;2023-04-28T00:18:03;5.20;;;2.00;;
71963;SDS011;59834;52.124;5.422;2023-04-28T00:20:32;3.92;;;1.75;;
71963;SDS011;59834;52.124;5.422;2023-04-28T00:22:59;3.10;;;1.75;;
71963;SDS011;59834;52.124;5.422;2023-04-28T00:25:26;5.85;;;1.90;;
71963;SDS011;59834;52.124;5.422;2023-04-28T00:27:52;5.45;;;1.70;;
71963;SDS011;59834;52.124;5.422;2023-04-28T00:30:22;6.03;;;2.10;;
71963;SDS011;59834;52.124;5.422;2023-04-28T00:32:51;5.32;;;2.10;;
71963;SDS011;59834;52.124;5.422;2023-04-28T00:35:19;3.47;;;1.67;;
71963;SDS011;59834;52.124;5.422;2023-04-28T00:37:47;3.45;;;1.88;;
71963;SDS011;59834;52.124;5.422;2023-04-28T00:40:18;3.63;;;1.63;;
71963;SDS011;59834;52.124;5.422;2023-04-28T00:42:45;3.90;;;1.88;;
71963;SDS011;59834;52.124;5.422;2023-04-28T00:45:11;3.28;;;2.10;;
71963;SDS011;59834;52.124;5.422;2023-04-28T00:47:38;2.85;;;1.48;;
71963;SDS011;59834;52.124;5.422;2023-04-28T00:50:05;5.78;;;1.65;;
71963;SDS011;59834;52.124;5.422;2023-04-28T00:52:32;4.13;;;2.15;;
71963;SDS011;59834;52.124;5.422;2023-04-28T00:54:59;4.63;;;1.43;;
71963;SDS011;59834;52.124;5.422;2023-04-28T00:57:26;5.25;;;2.00;;
71963;SDS011;59834;52.124;5.422;2023-04-28T00:59:53;3.80;;;1.83;;
71963;SDS011;59834;52.124;5.422;2023-04-28T01:02:20;3.42;;;1.60;;
71963;SDS011;59834;52.124;5.422;2023-04-28T01:04:47;6.00;;;1.90;;
71963;SDS011;59834;52.124;5.422;2023-04-28T01:07:16;7.93;;;1.73;;
71963;SDS011;59834;52.124;5.422;2023-04-28T01:09:43;4.82;;;1.80;;
71963;SDS011;59834;52.124;5.422;2023-04-28T01:15:11;4.22;;;1.80;;
71963;SDS011;59834;52.124;5.422;2023-04-28T01:17:41;7.97;;;1.80;;
71963;SDS011;59834;52.124;5.422;2023-04-28T01:20:08;4.80;;;1.90;;
71963;SDS011;59834;52.124;5.422;2023-04-28T01:22:36;5.80;;;2.30;;
71963;SDS011;59834;52.124;5.422;2023-04-28T01:25:03;5.55;;;2.97;;
71963;SDS011;59834;52.124;5.422;2023-04-28T01:27:30;4.63;;;1.73;;
71963;SDS011;59834;52.124;5.422;2023-04-28T01:29:56;6.35;;;2.83;;
71963;SDS011;59834;52.124;5.422;2023-04-28T01:32:23;3.90;;;1.70;;
71963;SDS011;59834;52.124;5.422;2023-04-28T01:34:50;3.70;;;1.90;;
71963;SDS011;59834;52.124;5.422;2023-04-28T01:37:17;3.63;;;1.92;;
71963;SDS011;59834;52.124;5.422;2023-04-28T01:39:44;4.75;;;2.03;;
71963;SDS011;59834;52.124;5.422;2023-04-28T01:42:10;5.03;;;1.90;;
71963;SDS011;59834;52.124;5.422;2023-04-28T01:44:37;2.40;;;1.63;;
71963;SDS011;59834;52.124;5.422;2023-04-28T01:47:03;4.85;;;2.65;;
71963;SDS011;59834;52.124;5.422;2023-04-28T01:49:30;2.65;;;1.67;;
71963;SDS011;59834;52.124;5.422;2023-04-28T01:51:57;3.53;;;1.65;;
71963;SDS011;59834;52.124;5.422;2023-04-28T01:54:24;4.53;;;1.30;;
71963;SDS011;59834;52.124;5.422;2023-04-28T01:59:44;3.80;;;1.58;;
71963;SDS011;59834;52.124;5.422;2023-04-28T02:02:11;5.88;;;1.77;;
71963;SDS011;59834;52.124;5.422;2023-04-28T02:04:38;5.47;;;1.65;;
71963;SDS011;59834;52.124;5.422;2023-04-28T02:07:05;4.05;;;1.65;;
71963;SDS011;59834;52.124;5.422;2023-04-28T02:09:33;6.43;;;1.83;;
71963;SDS011;59834;52.124;5.422;2023-04-28T02:12:01;4.90;;;1.60;;
71963;SDS011;59834;52.124;5.422;2023-04-28T02:14:29;2.85;;;1.85;;
71963;SDS011;59834;52.124;5.422;2023-04-28T02:17:02;4.25;;;1.52;;
71963;SDS011;59834;52.124;5.422;2023-04-28T02:19:30;3.75;;;1.92;;
71963;SDS011;59834;52.124;5.422;2023-04-28T02:21:57;6.03;;;2.30;;
71963;SDS011;59834;52.124;5.422;2023-04-28T02:24:24;4.15;;;1.40;;
71963;SDS011;59834;52.124;5.422;2023-04-28T02:26:50;5.68;;;1.50;;
71963;SDS011;59834;52.124;5.422;2023-04-28T02:29:21;3.88;;;1.35;;
71963;SDS011;59834;52.124;5.422;2023-04-28T02:31:48;4.03;;;2.08;;
71963;SDS011;59834;52.124;5.422;2023-04-28T02:34:16;3.37;;;1.50;;
71963;SDS011;59834;52.124;5.422;2023-04-28T02:36:43;3.45;;;1.63;;
71963;SDS011;59834;52.124;5.422;2023-04-28T02:39:10;3.53;;;1.83;;
71963;SDS011;59834;52.124;5.422;2023-04-28T02:41:37;2.75;;;1.58;;
71963;SDS011;59834;52.124;5.422;2023-04-28T02:44:04;2.80;;;1.45;;
71963;SDS011;59834;52.124;5.422;2023-04-28T02:46:31;4.90;;;1.90;;
71963;SDS011;59834;52.124;5.422;2023-04-28T02:48:59;7.57;;;2.03;;
71963;SDS011;59834;52.124;5.422;2023-04-28T02:51:26;6.13;;;2.05;;
71963;SDS011;59834;52.124;5.422;2023-04-28T02:53:52;5.47;;;1.63;;
71963;SDS011;59834;52.124;5.422;2023-04-28T02:56:19;6.28;;;1.80;;
71963;SDS011;59834;52.124;5.422;2023-04-28T02:58:46;2.40;;;1.33;;
71963;SDS011;59834;52.124;5.422;2023-04-28T03:01:12;2.72;;;1.65;;
71963;SDS011;59834;52.124;5.422;2023-04-28T03:03:39;5.22;;;1.67;;
71963;SDS011;59834;52.124;5.422;2023-04-28T03:06:06;4.03;;;1.67;;
71963;SDS011;59834;52.124;5.422;2023-04-28T03:08:33;4.72;;;1.70;;
71963;SDS011;59834;52.124;5.422;2023-04-28T03:11:00;2.93;;;1.73;;
71963;SDS011;59834;52.124;5.422;2023-04-28T03:13:28;6.68;;;1.75;;
71963;SDS011;59834;52.124;5.422;2023-04-28T03:15:55;4.15;;;1.40;;
71963;SDS011;59834;52.124;5.422;2023-04-28T03:18:22;7.18;;;1.88;;
71963;SDS011;59834;52.124;5.422;2023-04-28T03:20:49;4.65;;;1.83;;
71963;SDS011;59834;52.124;5.422;2023-04-28T03:23:16;6.10;;;1.60;;
71963;SDS011;59834;52.124;5.422;2023-04-28T03:25:43;3.33;;;1.52;;
71963;SDS011;59834;52.124;5.422;2023-04-28T03:28:11;2.35;;;1.20;;
71963;SDS011;59834;52.124;5.422;2023-04-28T03:30:37;4.75;;;1.58;;
71963;SDS011;59834;52.124;5.422;2023-04-28T03:33:04;5.30;;;1.70;;
71963;SDS011;59834;52.124;5.422;2023-04-28T03:35:32;3.60;;;1.70;;
71963;SDS011;59834;52.124;5.422;2023-04-28T03:37:59;4.60;;;1.85;;
71963;SDS011;59834;52.124;5.422;2023-04-28T03:40:25;5.78;;;2.50;;
71963;SDS011;59834;52.124;5.422;2023-04-28T03:42:52;9.52;;;1.95;;
71963;SDS011;59834;52.124;5.422;2023-04-28T03:45:19;5.03;;;1.60;;
71963;SDS011;59834;52.124;5.422;2023-04-28T03:47:46;3.70;;;2.37;;
71963;SDS011;59834;52.124;5.422;2023-04-28T03:50:13;5.45;;;1.40;;
71963;SDS011;59834;52.124;5.422;2023-04-28T03:52:39;2.78;;;1.40;;
71963;SDS011;59834;52.124;5.422;2023-04-28T03:55:06;5.60;;;1.88;;
71963;SDS011;59834;52.124;5.422;2023-04-28T03:57:33;4.43;;;1.73;;
71963;SDS011;59834;52.124;5.422;2023-04-28T04:00:01;3.53;;;1.90;;
71963;SDS011;59834;52.124;5.422;2023-04-28T04:02:28;5.10;;;2.28;;
71963;SDS011;59834;52.124;5.422;2023-04-28T04:04:54;5.00;;;2.17;;
71963;SDS011;59834;52.124;5.422;2023-04-28T04:07:21;5.88;;;1.90;;
71963;SDS011;59834;52.124;5.422;2023-04-28T04:09:49;3.80;;;1.65;;
71963;SDS011;59834;52.124;5.422;2023-04-28T04:12:17;4.77;;;2.27;;
71963;SDS011;59834;52.124;5.422;2023-04-28T04:14:44;6.35;;;1.77;;
71963;SDS011;59834;52.124;5.422;2023-04-28T04:17:11;4.68;;;2.03;;
71963;SDS011;59834;52.124;5.422;2023-04-28T04:19:38;2.58;;;1.70;;
71963;SDS011;59834;52.124;5.422;2023-04-28T04:22:06;3.17;;;1.50;;
71963;SDS011;59834;52.124;5.422;2023-04-28T04:24:33;4.43;;;2.03;;
71963;SDS011;59834;52.124;5.422;2023-04-28T04:27:00;4.72;;;2.15;;
71963;SDS011;59834;52.124;5.422;2023-04-28T04:29:27;4.00;;;2.00;;
71963;SDS011;59834;52.124;5.422;2023-04-28T04:31:54;4.70;;;2.15;;
71963;SDS011;59834;52.124;5.422;2023-04-28T04:34:20;4.55;;;2.20;;
71963;SDS011;59834;52.124;5.422;2023-04-28T04:36:48;3.67;;;1.90;;
71963;SDS011;59834;52.124;5.422;2023-04-28T04:39:15;2.88;;;1.98;;
71963;SDS011;59834;52.124;5.422;2023-04-28T04:41:42;3.80;;;2.15;;
71963;SDS011;59834;52.124;5.422;2023-04-28T04:44:11;5.53;;;1.75;;
71963;SDS011;59834;52.124;5.422;2023-04-28T04:46:39;5.78;;;1.88;;
71963;SDS011;59834;52.124;5.422;2023-04-28T04:49:06;4.27;;;1.93;;
71963;SDS011;59834;52.124;5.422;2023-04-28T04:51:32;2.80;;;1.58;;
71963;SDS011;59834;52.124;5.422;2023-04-28T04:54:02;5.45;;;2.20;;
71963;SDS011;59834;52.124;5.422;2023-04-28T04:56:29;4.75;;;2.58;;
71963;SDS011;59834;52.124;5.422;2023-04-28T04:58:58;4.30;;;2.25;;
71963;SDS011;59834;52.124;5.422;2023-04-28T05:01:25;6.53;;;2.30;;
71963;SDS011;59834;52.124;5.422;2023-04-28T05:03:56;10.20;;;2.75;;
71963;SDS011;59834;52.124;5.422;2023-04-28T05:06:23;5.60;;;2.03;;
71963;SDS011;59834;52.124;5.422;2023-04-28T05:08:50;4.47;;;2.65;;
71963;SDS011;59834;52.124;5.422;2023-04-28T05:11:16;5.75;;;2.50;;
71963;SDS011;59834;52.124;5.422;2023-04-28T05:13:43;5.33;;;2.30;;
71963;SDS011;59834;52.124;5.422;2023-04-28T05:16:10;5.57;;;2.53;;
71963;SDS011;59834;52.124;5.422;2023-04-28T05:18:37;5.50;;;2.58;;
71963;SDS011;59834;52.124;5.422;2023-04-28T05:21:10;4.85;;;2.40;;
71963;SDS011;59834;52.124;5.422;2023-04-28T05:23:49;4.43;;;2.30;;
71963;SDS011;59834;52.124;5.422;2023-04-28T05:26:18;3.80;;;2.53;;
71963;SDS011;59834;52.124;5.422;2023-04-28T05:28:45;4.60;;;2.67;;
71963;SDS011;59834;52.124;5.422;2023-04-28T05:31:15;4.72;;;2.97;;
71963;SDS011;59834;52.124;5.422;2023-04-28T05:33:42;5.07;;;2.45;;
71963;SDS011;59834;52.124;5.422;2023-04-28T05:36:08;5.03;;;2.72;;
71963;SDS011;59834;52.124;5.422;2023-04-28T05:38:35;4.45;;;2.45;;
71963;SDS011;59834;52.124;5.422;2023-04-28T05:41:02;5.88;;;3.30;;
71963;SDS011;59834;52.124;5.422;2023-04-28T05:43:29;8.52;;;3.22;;
71963;SDS011;59834;52.124;5.422;2023-04-28T05:45:55;10.73;;;3.30;;
71963;SDS011;59834;52.124;5.422;2023-04-28T05:48:23;4.93;;;3.08;;
71963;SDS011;59834;52.124;5.422;2023-04-28T05:51:10;6.80;;;3.07;;
71963;SDS011;59834;52.124;5.422;2023-04-28T05:54:00;9.00;;;4.43;;
71963;SDS011;59834;52.124;5.422;2023-04-28T05:57:18;5.68;;;2.92;;
71963;SDS011;59834;52.124;5.422;2023-04-28T05:59:55;6.90;;;3.10;;
71963;SDS011;59834;52.124;5.422;2023-04-28T06:02:25;11.07;;;3.58;;
71963;SDS011;59834;52.124;5.422;2023-04-28T06:05:05;6.23;;;3.70;;
71963;SDS011;59834;52.124;5.422;2023-04-28T06:07:33;6.18;;;3.00;;
71963;SDS011;59834;52.124;5.422;2023-04-28T06:10:00;10.63;;;3.70;;
71963;SDS011;59834;52.124;5.422;2023-04-28T06:15:21;6.03;;;3.03;;
71963;SDS011;59834;52.124;5.422;2023-04-28T06:17:49;7.60;;;3.73;;
71963;SDS011;59834;52.124;5.422;2023-04-28T06:20:16;5.38;;;3.83;;
71963;SDS011;59834;52.124;5.422;2023-04-28T06:22:43;5.50;;;3.80;;
71963;SDS011;59834;52.124;5.422;2023-04-28T06:25:11;8.18;;;3.25;;
71963;SDS011;59834;52.124;5.422;2023-04-28T06:27:38;5.85;;;3.80;;
71963;SDS011;59834;52.124;5.422;2023-04-28T06:30:05;6.07;;;3.63;;
71963;SDS011;59834;52.124;5.422;2023-04-28T06:32:32;11.35;;;4.70;;
71963;SDS011;59834;52.124;5.422;2023-04-28T06:34:59;7.45;;;4.30;;
71963;SDS011;59834;52.124;5.422;2023-04-28T06:43:51;7.47;;;4.55;;
71963;SDS011;59834;52.124;5.422;2023-04-28T06:46:18;7.40;;;4.15;;
71963;SDS011;59834;52.124;5.422;2023-04-28T06:48:46;8.77;;;5.07;;
71963;SDS011;59834;52.124;5.422;2023-04-28T06:51:15;10.15;;;4.55;;
71963;SDS011;59834;52.124;5.422;2023-04-28T06:53:41;7.38;;;4.65;;
71963;SDS011;59834;52.124;5.422;2023-04-28T06:56:08;9.90;;;5.50;;
71963;SDS011;59834;52.124;5.422;2023-04-28T06:58:36;6.68;;;4.38;;
71963;SDS011;59834;52.124;5.422;2023-04-28T07:01:17;8.20;;;5.00;;
71963;SDS011;59834;52.124;5.422;2023-04-28T07:03:59;9.93;;;5.25;;
71963;SDS011;59834;52.124;5.422;2023-04-28T07:06:54;9.75;;;5.10;;
71963;SDS011;59834;52.124;5.422;2023-04-28T07:09:28;9.70;;;4.85;;
71963;SDS011;59834;52.124;5.422;2023-04-28T07:15:46;9.75;;;5.75;;
71963;SDS011;59834;52.124;5.422;2023-04-28T07:18:13;8.90;;;5.60;;
71963;SDS011;59834;52.124;5.422;2023-04-28T07:20:40;10.32;;;6.15;;
71963;SDS011;59834;52.124;5.422;2023-04-28T07:23:07;10.23;;;6.10;;
71963;SDS011;59834;52.124;5.422;2023-04-28T07:25:34;9.07;;;5.72;;
71963;SDS011;59834;52.124;5.422;2023-04-28T07:28:02;11.40;;;6.68;;
71963;SDS011;59834;52.124;5.422;2023-04-28T07:30:29;12.10;;;6.72;;
71963;SDS011;59834;52.124;5.422;2023-04-28T07:32:56;8.50;;;5.78;;
71963;SDS011;59834;52.124;5.422;2023-04-28T07:35:25;12.82;;;6.95;;
71963;SDS011;59834;52.124;5.422;2023-04-28T07:37:53;9.13;;;6.00;;
71963;SDS011;59834;52.124;5.422;2023-04-28T07:40:21;13.65;;;6.53;;
71963;SDS011;59834;52.124;5.422;2023-04-28T07:43:03;8.68;;;6.20;;
71963;SDS011;59834;52.124;5.422;2023-04-28T07:45:29;10.15;;;6.53;;
71963;SDS011;59834;52.124;5.422;2023-04-28T07:47:57;8.65;;;6.57;;
71963;SDS011;59834;52.124;5.422;2023-04-28T07:50:25;14.17;;;7.30;;
71963;SDS011;59834;52.124;5.422;2023-04-28T07:52:52;12.60;;;7.10;;
71963;SDS011;59834;52.124;5.422;2023-04-28T07:55:20;9.23;;;7.13;;
71963;SDS011;59834;52.124;5.422;2023-04-28T07:57:50;9.25;;;6.65;;
71963;SDS011;59834;52.124;5.422;2023-04-28T08:00:17;10.88;;;7.22;;
71963;SDS011;59834;52.124;5.422;2023-04-28T08:02:44;9.93;;;7.10;;
71963;SDS011;59834;52.124;5.422;2023-04-28T08:05:12;11.05;;;6.50;;
71963;SDS011;59834;52.124;5.422;2023-04-28T08:07:39;10.98;;;7.05;;
71963;SDS011;59834;52.124;5.422;2023-04-28T08:10:07;12.88;;;6.97;;
71963;SDS011;59834;52.124;5.422;2023-04-28T08:12:41;12.45;;;7.75;;
71963;SDS011;59834;52.124;5.422;2023-04-28T08:15:14;10.70;;;7.30;;
71963;SDS011;59834;52.124;5.422;2023-04-28T08:18:01;11.73;;;7.50;;
71963;SDS011;59834;52.124;5.422;2023-04-28T08:23:23;10.05;;;7.07;;
71963;SDS011;59834;52.124;5.422;2023-04-28T08:25:53;11.02;;;7.30;;
71963;SDS011;59834;52.124;5.422;2023-04-28T08:28:34;22.60;;;6.95;;
71963;SDS011;59834;52.124;5.422;2023-04-28T08:31:03;13.32;;;7.05;;
71963;SDS011;59834;52.124;5.422;2023-04-28T08:33:35;9.77;;;7.80;;
71963;SDS011;59834;52.124;5.422;2023-04-28T08:36:02;10.82;;;7.72;;
71963;SDS011;59834;52.124;5.422;2023-04-28T08:38:30;11.13;;;7.47;;
71963;SDS011;59834;52.124;5.422;2023-04-28T08:40:58;11.27;;;7.90;;
71963;SDS011;59834;52.124;5.422;2023-04-28T08:43:24;15.02;;;8.32;;
71963;SDS011;59834;52.124;5.422;2023-04-28T08:45:51;10.80;;;7.78;;
71963;SDS011;59834;52.124;5.422;2023-04-28T08:48:19;13.98;;;8.00;;
71963;SDS011;59834;52.124;5.422;2023-04-28T08:50:50;12.98;;;7.28;;
71963;SDS011;59834;52.124;5.422;2023-04-28T08:53:23;11.98;;;8.55;;
71963;SDS011;59834;52.124;5.422;2023-04-28T08:55:54;12.95;;;8.77;;
71963;SDS011;59834;52.124;5.422;2023-04-28T08:58:26;10.60;;;8.38;;
71963;SDS011;59834;52.124;5.422;2023-04-28T09:04:55;13.55;;;8.70;;
71963;SDS011;59834;52.124;5.422;2023-04-28T09:07:30;11.67;;;8.70;;
71963;SDS011;59834;52.124;5.422;2023-04-28T09:28:19;15.55;;;9.40;;
71963;SDS011;59834;52.124;5.422;2023-04-28T09:31:24;10.23;;;8.52;;
71963;SDS011;59834;52.124;5.422;2023-04-28T09:44:38;11.15;;;9.75;;
71963;SDS011;59834;52.124;5.422;2023-04-28T09:47:32;13.45;;;8.95;;
71963;SDS011;59834;52.124;5.422;2023-04-28T09:50:50;11.98;;;9.05;;
71963;SDS011;59834;52.124;5.422;2023-04-28T09:53:35;13.50;;;9.07;;
71963;SDS011;59834;52.124;5.422;2023-04-28T09:56:04;13.25;;;8.88;;
71963;SDS011;59834;52.124;5.422;2023-04-28T10:02:24;11.77;;;9.38;;
71963;SDS011;59834;52.124;5.422;2023-04-28T10:05:00;13.02;;;9.27;;
71963;SDS011;59834;52.124;5.422;2023-04-28T10:07:30;9.38;;;8.10;;
71963;SDS011;59834;52.124;5.422;2023-04-28T10:10:05;9.53;;;7.83;;
71963;SDS011;59834;52.124;5.422;2023-04-28T10:12:33;11.25;;;8.20;;
71963;SDS011;59834;52.124;5.422;2023-04-28T10:15:08;9.35;;;7.60;;
71963;SDS011;59834;52.124;5.422;2023-04-28T10:23:03;8.90;;;6.80;;
71963;SDS011;59834;52.124;5.422;2023-04-28T10:25:56;7.30;;;6.30;;
71963;SDS011;59834;52.124;5.422;2023-04-28T10:28:29;7.45;;;5.72;;
71963;SDS011;59834;52.124;5.422;2023-04-28T10:31:08;6.65;;;5.95;;
71963;SDS011;59834;52.124;5.422;2023-04-28T10:33:39;7.43;;;6.43;;
71963;SDS011;59834;52.124;5.422;2023-04-28T10:42:59;7.65;;;6.78;;
71963;SDS011;59834;52.124;5.422;2023-04-28T10:54:05;8.83;;;5.93;;
71963;SDS011;59834;52.124;5.422;2023-04-28T10:57:13;8.07;;;6.32;;
71963;SDS011;59834;52.124;5.422;2023-04-28T10:59:50;6.57;;;5.65;;
71963;SDS011;59834;52.124;5.422;2023-04-28T11:05:16;8.88;;;7.68;;
71963;SDS011;59834;52.124;5.422;2023-04-28T11:13:39;5.65;;;5.03;;
71963;SDS011;59834;52.124;5.422;2023-04-28T11:16:07;7.70;;;6.65;;
71963;SDS011;59834;52.124;5.422;2023-04-28T11:21:21;6.17;;;5.30;;
71963;SDS011;59834;52.124;5.422;2023-04-28T11:23:48;6.20;;;5.60;;
71963;SDS011;59834;52.124;5.422;2023-04-28T11:26:15;5.95;;;5.25;;
71963;SDS011;59834;52.124;5.422;2023-04-28T11:28:47;7.65;;;6.50;;
71963;SDS011;59834;52.124;5.422;2023-04-28T11:31:15;7.18;;;6.25;;
71963;SDS011;59834;52.124;5.422;2023-04-28T11:34:07;7.60;;;6.67;;
71963;SDS011;59834;52.124;5.422;2023-04-28T11:36:40;8.70;;;6.40;;
71963;SDS011;59834;52.124;5.422;2023-04-28T11:39:08;9.40;;;6.35;;
71963;SDS011;59834;52.124;5.422;2023-04-28T11:41:36;11.52;;;8.85;;
71963;SDS011;59834;52.124;5.422;2023-04-28T11:46:48;7.97;;;6.07;;
71963;SDS011;59834;52.124;5.422;2023-04-28T11:49:18;7.20;;;5.68;;
71963;SDS011;59834;52.124;5.422;2023-04-28T11:51:46;7.72;;;5.85;;
71963;SDS011;59834;52.124;5.422;2023-04-28T11:54:19;8.05;;;6.20;;
71963;SDS011;59834;52.124;5.422;2023-04-28T11:56:47;8.45;;;4.97;;
71963;SDS011;59834;52.124;5.422;2023-04-28T11:59:14;8.47;;;5.50;;
71963;SDS011;59834;52.124;5.422;2023-04-28T12:01:47;7.47;;;4.80;;
71963;SDS011;59834;52.124;5.422;2023-04-28T12:04:28;6.72;;;4.43;;
71963;SDS011;59834;52.124;5.422;2023-04-28T12:07:10;4.57;;;4.03;;
71963;SDS011;59834;52.124;5.422;2023-04-28T12:09:47;7.82;;;4.72;;
71963;SDS011;59834;52.124;5.422;2023-04-28T12:12:36;4.60;;;3.23;;
71963;SDS011;59834;52.124;5.422;2023-04-28T12:15:07;5.72;;;4.13;;
71963;SDS011;59834;52.124;5.422;2023-04-28T12:20:32;7.57;;;4.63;;
71963;SDS011;59834;52.124;5.422;2023-04-28T12:22:59;6.72;;;3.65;;
71963;SDS011;59834;52.124;5.422;2023-04-28T12:25:28;6.83;;;4.53;;
71963;SDS011;59834;52.124;5.422;2023-04-28T12:28:02;6.93;;;3.53;;
71963;SDS011;59834;52.124;5.422;2023-04-28T12:30:31;4.90;;;3.33;;
71963;SDS011;59834;52.124;5.422;2023-04-28T12:33:01;5.10;;;3.30;;
71963;SDS011;59834;52.124;5.422;2023-04-28T12:35:34;4.47;;;2.90;;
71963;SDS011;59834;52.124;5.422;2023-04-28T12:38:01;3.90;;;2.87;;
71963;SDS011;59834;52.124;5.422;2023-04-28T12:40:28;4.78;;;2.60;;
71963;SDS011;59834;52.124;5.422;2023-04-28T12:42:55;3.40;;;1.67;;
71963;SDS011;59834;52.124;5.422;2023-04-28T12:45:22;2.33;;;1.25;;
71963;SDS011;59834;52.124;5.422;2023-04-28T12:47:49;2.63;;;0.88;;
71963;SDS011;59834;52.124;5.422;2023-04-28T12:50:16;2.80;;;0.70;;
71963;SDS011;59834;52.124;5.422;2023-04-28T12:52:42;2.40;;;0.85;;
71963;SDS011;59834;52.124;5.422;2023-04-28T12:55:09;2.83;;;0.70;;
71963;SDS011;59834;52.124;5.422;2023-04-28T12:57:36;2.30;;;0.80;;
71963;SDS011;59834;52.124;5.422;2023-04-28T13:00:06;2.40;;;0.75;;
71963;SDS011;59834;52.124;5.422;2023-04-28T13:02:34;2.57;;;1.40;;
71963;SDS011;59834;52.124;5.422;2023-04-28T13:05:01;2.10;;;0.85;;
71963;SDS011;59834;52.124;5.422;2023-04-28T13:07:28;2.78;;;0.82;;
71963;SDS011;59834;52.124;5.422;2023-04-28T13:09:56;1.25;;;0.60;;
71963;SDS011;59834;52.124;5.422;2023-04-28T13:12:24;1.20;;;0.52;;
71963;SDS011;59834;52.124;5.422;2023-04-28T13:15:14;1.40;;;0.70;;
71963;SDS011;59834;52.124;5.422;2023-04-28T13:17:47;1.10;;;0.52;;
71963;SDS011;59834;52.124;5.422;2023-04-28T13:20:24;1.30;;;0.70;;
71963;SDS011;59834;52.124;5.422;2023-04-28T13:22:59;2.03;;;0.80;;
71963;SDS011;59834;52.124;5.422;2023-04-28T13:25:53;1.70;;;1.08;;
71963;SDS011;59834;52.124;5.422;2023-04-28T13:28:56;3.40;;;2.43;;
71963;SDS011;59834;52.124;5.422;2023-04-28T13:31:25;1.40;;;1.10;;
71963;SDS011;59834;52.124;5.422;2023-04-28T13:33:52;1.55;;;1.17;;
71963;SDS011;59834;52.124;5.422;2023-04-28T13:44:50;1.50;;;1.20;;
71963;SDS011;59834;52.124;5.422;2023-04-28T13:47:18;1.55;;;1.25;;
71963;SDS011;59834;52.124;5.422;2023-04-28T13:49:55;2.45;;;1.30;;
71963;SDS011;59834;52.124;5.422;2023-04-28T13:52:21;1.85;;;1.50;;
71963;SDS011;59834;52.124;5.422;2023-04-28T13:54:49;1.42;;;1.05;;
71963;SDS011;59834;52.124;5.422;2023-04-28T13:57:16;1.50;;;1.40;;
71963;SDS011;59834;52.124;5.422;2023-04-28T13:59:43;1.88;;;1.30;;
71963;SDS011;59834;52.124;5.422;2023-04-28T14:05:35;1.48;;;0.98;;
71963;SDS011;59834;52.124;5.422;2023-04-28T14:08:14;1.50;;;1.00;;
71963;SDS011;59834;52.124;5.422;2023-04-28T14:10:45;1.30;;;0.83;;
71963;SDS011;59834;52.124;5.422;2023-04-28T14:13:13;0.90;;;0.60;;
71963;SDS011;59834;52.124;5.422;2023-04-28T14:15:40;1.30;;;0.90;;
71963;SDS011;59834;52.124;5.422;2023-04-28T14:18:23;0.75;;;0.30;;
71963;SDS011;59834;52.124;5.422;2023-04-28T14:20:49;1.02;;;0.30;;
71963;SDS011;59834;52.124;5.422;2023-04-28T14:23:17;0.90;;;0.40;;
71963;SDS011;59834;52.124;5.422;2023-04-28T14:25:43;1.13;;;0.50;;
71963;SDS011;59834;52.124;5.422;2023-04-28T14:28:10;1.23;;;0.60;;
71963;SDS011;59834;52.124;5.422;2023-04-28T14:30:37;1.20;;;0.60;;
71963;SDS011;59834;52.124;5.422;2023-04-28T14:33:04;1.38;;;0.60;;
71963;SDS011;59834;52.124;5.422;2023-04-28T14:35:32;1.77;;;0.80;;
71963;SDS011;59834;52.124;5.422;2023-04-28T14:37:59;1.33;;;0.65;;
71963;SDS011;59834;52.124;5.422;2023-04-28T14:40:26;2.30;;;0.70;;
71963;SDS011;59834;52.124;5.422;2023-04-28T14:42:53;2.25;;;1.20;;
71963;SDS011;59834;52.124;5.422;2023-04-28T14:45:20;2.83;;;1.63;;
71963;SDS011;59834;52.124;5.422;2023-04-28T14:47:47;2.50;;;1.80;;
71963;SDS011;59834;52.124;5.422;2023-04-28T14:50:14;3.05;;;1.80;;
71963;SDS011;59834;52.124;5.422;2023-04-28T14:52:41;4.68;;;2.47;;
71963;SDS011;59834;52.124;5.422;2023-04-28T14:55:07;3.67;;;2.22;;
71963;SDS011;59834;52.124;5.422;2023-04-28T14:57:35;4.90;;;2.85;;
71963;SDS011;59834;52.124;5.422;2023-04-28T15:00:03;3.90;;;2.67;;
71963;SDS011;59834;52.124;5.422;2023-04-28T15:02:30;4.43;;;2.70;;
71963;SDS011;59834;52.124;5.422;2023-04-28T15:04:57;5.80;;;3.10;;
71963;SDS011;59834;52.124;5.422;2023-04-28T15:07:25;4.53;;;3.40;;
71963;SDS011;59834;52.124;5.422;2023-04-28T15:09:58;7.15;;;3.30;;
71963;SDS011;59834;52.124;5.422;2023-04-28T15:12:28;5.27;;;3.00;;
71963;SDS011;59834;52.124;5.422;2023-04-28T15:14:56;6.18;;;3.33;;
71963;SDS011;59834;52.124;5.422;2023-04-28T15:17:24;6.80;;;3.80;;
71963;SDS011;59834;52.124;5.422;2023-04-28T15:19:52;6.32;;;4.07;;
71963;SDS011;59834;52.124;5.422;2023-04-28T15:22:19;6.75;;;3.78;;
71963;SDS011;59834;52.124;5.422;2023-04-28T15:24:47;6.60;;;3.97;;
71963;SDS011;59834;52.124;5.422;2023-04-28T15:27:22;5.38;;;3.45;;
71963;SDS011;59834;52.124;5.422;2023-04-28T15:29:49;6.72;;;3.70;;
71963;SDS011;59834;52.124;5.422;2023-04-28T15:32:16;5.95;;;3.92;;
71963;SDS011;59834;52.124;5.422;2023-04-28T15:34:45;6.60;;;3.78;;
71963;SDS011;59834;52.124;5.422;2023-04-28T15:40:06;6.40;;;2.97;;
71963;SDS011;59834;52.124;5.422;2023-04-28T15:42:41;6.05;;;3.53;;
71963;SDS011;59834;52.124;5.422;2023-04-28T15:45:20;7.35;;;3.67;;
71963;SDS011;59834;52.124;5.422;2023-04-28T15:48:22;5.82;;;3.22;;
71963;SDS011;59834;52.124;5.422;2023-04-28T15:51:17;4.83;;;2.60;;
71963;SDS011;59834;52.124;5.422;2023-04-28T15:53:46;4.95;;;2.92;;
71963;SDS011;59834;52.124;5.422;2023-04-28T15:56:16;4.93;;;3.00;;
71963;SDS011;59834;52.124;5.422;2023-04-28T15:58:47;5.13;;;2.85;;
71963;SDS011;59834;52.124;5.422;2023-04-28T16:01:14;7.55;;;3.78;;
71963;SDS011;59834;52.124;5.422;2023-04-28T16:03:41;7.80;;;3.73;;
71963;SDS011;59834;52.124;5.422;2023-04-28T16:06:11;6.28;;;3.72;;
71963;SDS011;59834;52.124;5.422;2023-04-28T16:08:38;8.45;;;4.05;;
71963;SDS011;59834;52.124;5.422;2023-04-28T16:11:04;7.68;;;4.53;;
71963;SDS011;59834;52.124;5.422;2023-04-28T16:13:31;7.03;;;4.20;;
71963;SDS011;59834;52.124;5.422;2023-04-28T16:16:02;7.33;;;4.17;;
71963;SDS011;59834;52.124;5.422;2023-04-28T16:18:29;8.35;;;4.10;;
71963;SDS011;59834;52.124;5.422;2023-04-28T16:20:58;7.85;;;4.55;;
71963;SDS011;59834;52.124;5.422;2023-04-28T16:23:25;7.90;;;4.40;;
71963;SDS011;59834;52.124;5.422;2023-04-28T16:25:51;9.57;;;4.25;;
71963;SDS011;59834;52.124;5.422;2023-04-28T16:28:19;9.93;;;5.03;;
71963;SDS011;59834;52.124;5.422;2023-04-28T16:30:46;7.65;;;4.53;;
71963;SDS011;59834;52.124;5.422;2023-04-28T16:33:12;9.32;;;5.05;;
71963;SDS011;59834;52.124;5.422;2023-04-28T16:35:40;9.27;;;4.55;;
71963;SDS011;59834;52.124;5.422;2023-04-28T16:38:07;10.95;;;5.45;;
71963;SDS011;59834;52.124;5.422;2023-04-28T16:40:34;7.67;;;4.97;;
71963;SDS011;59834;52.124;5.422;2023-04-28T16:43:00;10.27;;;4.65;;
71963;SDS011;59834;52.124;5.422;2023-04-28T16:45:27;6.47;;;4.28;;
71963;SDS011;59834;52.124;5.422;2023-04-28T16:47:54;8.75;;;4.95;;
71963;SDS011;59834;52.124;5.422;2023-04-28T16:50:21;10.18;;;5.10;;
71963;SDS011;59834;52.124;5.422;2023-04-28T16:52:48;11.33;;;4.60;;